sensor_id;sensor_type;location;lat;lon;timestamp;P1;durP1;ratioP1;P2;durP2;ratioP2
63276;SDS011;49403;51.046;13.780;2022-08-19T00:00:09;14.48;;;10.38;;
63276;SDS011;49403;51.046;13.780;2022-08-19T00:00:40;15.48;;;9.85;;
63276;SDS011;49403;51.046;13.780;2022-08-19T00:01:11;11.20;;;9.77;;
63276;SDS011;49403;51.046;13.780;2022-08-19T00:01:43;14.50;;;10.68;;
63276;SDS011;49403;51.046;13.780;2022-08-19T00:02:17;16.90;;;9.95;;
63276;SDS011;49403;51.046;13.780;2022-08-19T00:02:47;12.68;;;10.23;;
63276;SDS011;49403;51.046;13.780;2022-08-19T00:03:18;13.10;;;10.27;;
63276;SDS011;49403;51.046;13.780;2022-08-19T00:03:49;13.35;;;10.77;;
63276;SDS011;49403;51.046;13.780;2022-08-19T00:04:21;15.35;;;10.18;;
63276;SDS011;49403;51.046;13.780;2022-08-19T00:04:56;13.25;;;10.00;;
63276;SDS011;49403;51.046;13.780;2022-08-19T00:05:27;13.50;;;10.60;;
63276;SDS011;49403;51.046;13.780;2022-08-19T00:05:58;11.50;;;10.07;;
63276;SDS011;49403;51.046;13.780;2022-08-19T00:06:29;13.68;;;10.00;;
63276;SDS011;49403;51.046;13.780;2022-08-19T00:07:00;16.02;;;10.45;;
63276;SDS011;49403;51.046;13.780;2022-08-19T00:07:32;15.13;;;10.65;;
63276;SDS011;49403;51.046;13.780;2022-08-19T00:08:04;12.57;;;10.48;;
63276;SDS011;49403;51.046;13.780;2022-08-19T00:08:35;13.73;;;10.70;;
63276;SDS011;49403;51.046;13.780;2022-08-19T00:09:07;13.27;;;10.40;;
63276;SDS011;49403;51.046;13.780;2022-08-19T00:09:39;16.00;;;10.95;;
63276;SDS011;49403;51.046;13.780;2022-08-19T00:10:11;12.60;;;10.10;;
63276;SDS011;49403;51.046;13.780;2022-08-19T00:10:44;17.58;;;11.27;;
63276;SDS011;49403;51.046;13.780;2022-08-19T00:11:15;16.50;;;11.13;;
63276;SDS011;49403;51.046;13.780;2022-08-19T00:11:47;14.02;;;10.52;;
63276;SDS011;49403;51.046;13.780;2022-08-19T00:12:18;14.25;;;10.60;;
63276;SDS011;49403;51.046;13.780;2022-08-19T00:12:48;15.45;;;10.60;;
63276;SDS011;49403;51.046;13.780;2022-08-19T00:13:20;15.20;;;11.35;;
63276;SDS011;49403;51.046;13.780;2022-08-19T00:13:50;15.82;;;10.80;;
63276;SDS011;49403;51.046;13.780;2022-08-19T00:14:22;17.73;;;11.10;;
63276;SDS011;49403;51.046;13.780;2022-08-19T00:14:54;14.95;;;10.13;;
63276;SDS011;49403;51.046;13.780;2022-08-19T00:15:25;13.73;;;10.88;;
63276;SDS011;49403;51.046;13.780;2022-08-19T00:15:56;14.02;;;11.43;;
63276;SDS011;49403;51.046;13.780;2022-08-19T00:16:28;14.77;;;10.88;;
63276;SDS011;49403;51.046;13.780;2022-08-19T00:16:59;15.77;;;10.38;;
63276;SDS011;49403;51.046;13.780;2022-08-19T00:17:31;19.77;;;11.50;;
63276;SDS011;49403;51.046;13.780;2022-08-19T00:18:02;13.63;;;11.50;;
63276;SDS011;49403;51.046;13.780;2022-08-19T00:18:33;16.95;;;11.25;;
63276;SDS011;49403;51.046;13.780;2022-08-19T00:19:04;17.55;;;10.75;;
63276;SDS011;49403;51.046;13.780;2022-08-19T00:19:36;16.33;;;11.00;;
63276;SDS011;49403;51.046;13.780;2022-08-19T00:20:07;16.20;;;10.95;;
63276;SDS011;49403;51.046;13.780;2022-08-19T00:20:40;18.60;;;11.45;;
63276;SDS011;49403;51.046;13.780;2022-08-19T00:21:11;14.05;;;10.88;;
63276;SDS011;49403;51.046;13.780;2022-08-19T00:21:43;15.82;;;10.98;;
63276;SDS011;49403;51.046;13.780;2022-08-19T00:22:14;13.70;;;10.73;;
63276;SDS011;49403;51.046;13.780;2022-08-19T00:22:47;14.88;;;10.75;;
63276;SDS011;49403;51.046;13.780;2022-08-19T00:23:19;13.90;;;10.80;;
63276;SDS011;49403;51.046;13.780;2022-08-19T00:23:49;14.65;;;11.60;;
63276;SDS011;49403;51.046;13.780;2022-08-19T00:24:20;16.30;;;11.32;;
63276;SDS011;49403;51.046;13.780;2022-08-19T00:24:52;15.57;;;11.23;;
63276;SDS011;49403;51.046;13.780;2022-08-19T00:25:23;15.82;;;11.80;;
63276;SDS011;49403;51.046;13.780;2022-08-19T00:25:54;17.80;;;11.60;;
63276;SDS011;49403;51.046;13.780;2022-08-19T00:26:25;13.75;;;10.73;;
63276;SDS011;49403;51.046;13.780;2022-08-19T00:26:57;16.13;;;11.20;;
63276;SDS011;49403;51.046;13.780;2022-08-19T00:27:28;15.50;;;11.70;;
63276;SDS011;49403;51.046;13.780;2022-08-19T00:27:59;14.90;;;11.48;;
63276;SDS011;49403;51.046;13.780;2022-08-19T00:28:31;16.25;;;11.35;;
63276;SDS011;49403;51.046;13.780;2022-08-19T00:29:03;14.63;;;11.25;;
63276;SDS011;49403;51.046;13.780;2022-08-19T00:29:35;14.45;;;11.63;;
63276;SDS011;49403;51.046;13.780;2022-08-19T00:30:06;15.82;;;11.30;;
63276;SDS011;49403;51.046;13.780;2022-08-19T00:30:40;13.93;;;11.10;;
63276;SDS011;49403;51.046;13.780;2022-08-19T00:31:10;15.40;;;11.75;;
63276;SDS011;49403;51.046;13.780;2022-08-19T00:31:42;15.82;;;11.10;;
63276;SDS011;49403;51.046;13.780;2022-08-19T00:32:13;18.67;;;11.80;;
63276;SDS011;49403;51.046;13.780;2022-08-19T00:32:44;15.07;;;11.35;;
63276;SDS011;49403;51.046;13.780;2022-08-19T00:33:15;17.17;;;11.18;;
63276;SDS011;49403;51.046;13.780;2022-08-19T00:33:46;13.75;;;11.00;;
63276;SDS011;49403;51.046;13.780;2022-08-19T00:34:20;16.63;;;11.90;;
63276;SDS011;49403;51.046;13.780;2022-08-19T00:34:51;17.17;;;12.35;;
63276;SDS011;49403;51.046;13.780;2022-08-19T00:35:23;16.25;;;11.48;;
63276;SDS011;49403;51.046;13.780;2022-08-19T00:35:57;15.52;;;12.30;;
63276;SDS011;49403;51.046;13.780;2022-08-19T00:36:28;15.10;;;12.50;;
63276;SDS011;49403;51.046;13.780;2022-08-19T00:37:00;14.23;;;11.60;;
63276;SDS011;49403;51.046;13.780;2022-08-19T00:37:30;16.05;;;12.18;;
63276;SDS011;49403;51.046;13.780;2022-08-19T00:38:03;19.38;;;11.77;;
63276;SDS011;49403;51.046;13.780;2022-08-19T00:38:36;17.73;;;12.15;;
63276;SDS011;49403;51.046;13.780;2022-08-19T00:39:11;17.05;;;11.60;;
63276;SDS011;49403;51.046;13.780;2022-08-19T00:39:42;15.35;;;11.55;;
63276;SDS011;49403;51.046;13.780;2022-08-19T00:40:13;15.18;;;12.15;;
63276;SDS011;49403;51.046;13.780;2022-08-19T00:40:45;14.70;;;12.02;;
63276;SDS011;49403;51.046;13.780;2022-08-19T00:41:17;14.82;;;11.45;;
63276;SDS011;49403;51.046;13.780;2022-08-19T00:41:51;13.90;;;11.00;;
63276;SDS011;49403;51.046;13.780;2022-08-19T00:42:22;13.82;;;11.68;;
63276;SDS011;49403;51.046;13.780;2022-08-19T00:42:53;21.90;;;11.88;;
63276;SDS011;49403;51.046;13.780;2022-08-19T00:43:24;13.77;;;11.15;;
63276;SDS011;49403;51.046;13.780;2022-08-19T00:44:03;18.10;;;11.80;;
63276;SDS011;49403;51.046;13.780;2022-08-19T00:44:39;14.30;;;12.05;;
63276;SDS011;49403;51.046;13.780;2022-08-19T00:45:15;15.95;;;11.77;;
63276;SDS011;49403;51.046;13.780;2022-08-19T00:45:50;15.32;;;11.63;;
63276;SDS011;49403;51.046;13.780;2022-08-19T00:46:21;16.38;;;11.32;;
63276;SDS011;49403;51.046;13.780;2022-08-19T00:46:53;13.52;;;11.13;;
63276;SDS011;49403;51.046;13.780;2022-08-19T00:47:25;14.13;;;11.02;;
63276;SDS011;49403;51.046;13.780;2022-08-19T00:47:56;14.70;;;11.27;;
63276;SDS011;49403;51.046;13.780;2022-08-19T00:48:26;14.52;;;11.52;;
63276;SDS011;49403;51.046;13.780;2022-08-19T00:48:57;13.02;;;11.35;;
63276;SDS011;49403;51.046;13.780;2022-08-19T00:49:47;15.30;;;11.43;;
63276;SDS011;49403;51.046;13.780;2022-08-19T00:50:21;14.32;;;11.27;;
63276;SDS011;49403;51.046;13.780;2022-08-19T00:50:53;15.30;;;11.25;;
63276;SDS011;49403;51.046;13.780;2022-08-19T00:51:26;13.45;;;11.45;;
63276;SDS011;49403;51.046;13.780;2022-08-19T00:52:00;15.60;;;12.23;;
63276;SDS011;49403;51.046;13.780;2022-08-19T00:52:39;15.38;;;11.60;;
63276;SDS011;49403;51.046;13.780;2022-08-19T00:53:16;14.57;;;11.95;;
63276;SDS011;49403;51.046;13.780;2022-08-19T00:53:50;19.58;;;11.30;;
63276;SDS011;49403;51.046;13.780;2022-08-19T00:54:21;16.85;;;11.48;;
63276;SDS011;49403;51.046;13.780;2022-08-19T00:54:52;16.42;;;11.57;;
63276;SDS011;49403;51.046;13.780;2022-08-19T00:55:24;16.98;;;12.00;;
63276;SDS011;49403;51.046;13.780;2022-08-19T00:55:59;15.90;;;11.60;;
63276;SDS011;49403;51.046;13.780;2022-08-19T00:56:32;14.80;;;11.70;;
63276;SDS011;49403;51.046;13.780;2022-08-19T00:57:05;15.40;;;11.77;;
63276;SDS011;49403;51.046;13.780;2022-08-19T00:57:40;15.95;;;11.88;;
63276;SDS011;49403;51.046;13.780;2022-08-19T00:58:15;15.70;;;11.95;;
63276;SDS011;49403;51.046;13.780;2022-08-19T00:58:49;17.13;;;11.65;;
63276;SDS011;49403;51.046;13.780;2022-08-19T00:59:20;16.42;;;11.48;;
63276;SDS011;49403;51.046;13.780;2022-08-19T00:59:52;13.82;;;11.20;;
63276;SDS011;49403;51.046;13.780;2022-08-19T01:00:26;19.20;;;12.13;;
63276;SDS011;49403;51.046;13.780;2022-08-19T01:00:57;17.30;;;11.43;;
63276;SDS011;49403;51.046;13.780;2022-08-19T01:01:28;15.40;;;11.05;;
63276;SDS011;49403;51.046;13.780;2022-08-19T01:01:59;15.07;;;10.93;;
63276;SDS011;49403;51.046;13.780;2022-08-19T01:02:31;13.30;;;11.15;;
63276;SDS011;49403;51.046;13.780;2022-08-19T01:03:04;13.93;;;11.40;;
63276;SDS011;49403;51.046;13.780;2022-08-19T01:03:39;21.75;;;12.27;;
63276;SDS011;49403;51.046;13.780;2022-08-19T01:04:11;14.45;;;11.15;;
63276;SDS011;49403;51.046;13.780;2022-08-19T01:04:42;15.77;;;11.68;;
63276;SDS011;49403;51.046;13.780;2022-08-19T01:05:16;14.35;;;11.70;;
63276;SDS011;49403;51.046;13.780;2022-08-19T01:05:52;14.93;;;12.30;;
63276;SDS011;49403;51.046;13.780;2022-08-19T01:06:25;15.65;;;11.35;;
63276;SDS011;49403;51.046;13.780;2022-08-19T01:06:56;16.63;;;11.82;;
63276;SDS011;49403;51.046;13.780;2022-08-19T01:07:28;14.75;;;11.65;;
63276;SDS011;49403;51.046;13.780;2022-08-19T01:07:59;16.98;;;12.20;;
63276;SDS011;49403;51.046;13.780;2022-08-19T01:08:33;17.23;;;11.88;;
63276;SDS011;49403;51.046;13.780;2022-08-19T01:09:04;14.57;;;11.45;;
63276;SDS011;49403;51.046;13.780;2022-08-19T01:09:36;17.02;;;12.27;;
63276;SDS011;49403;51.046;13.780;2022-08-19T01:10:07;16.67;;;12.00;;
63276;SDS011;49403;51.046;13.780;2022-08-19T01:10:42;19.50;;;12.48;;
63276;SDS011;49403;51.046;13.780;2022-08-19T01:11:17;15.18;;;11.80;;
63276;SDS011;49403;51.046;13.780;2022-08-19T01:11:48;14.80;;;11.93;;
63276;SDS011;49403;51.046;13.780;2022-08-19T01:12:19;18.48;;;12.20;;
63276;SDS011;49403;51.046;13.780;2022-08-19T01:12:51;14.93;;;11.60;;
63276;SDS011;49403;51.046;13.780;2022-08-19T01:13:24;13.82;;;11.65;;
63276;SDS011;49403;51.046;13.780;2022-08-19T01:14:00;15.30;;;11.55;;
63276;SDS011;49403;51.046;13.780;2022-08-19T01:14:31;15.50;;;12.18;;
63276;SDS011;49403;51.046;13.780;2022-08-19T01:15:04;18.65;;;12.15;;
63276;SDS011;49403;51.046;13.780;2022-08-19T01:15:42;14.27;;;11.05;;
63276;SDS011;49403;51.046;13.780;2022-08-19T01:16:17;15.30;;;12.75;;
63276;SDS011;49403;51.046;13.780;2022-08-19T01:16:52;15.32;;;11.77;;
63276;SDS011;49403;51.046;13.780;2022-08-19T01:17:25;17.27;;;12.82;;
63276;SDS011;49403;51.046;13.780;2022-08-19T01:17:58;16.33;;;12.10;;
63276;SDS011;49403;51.046;13.780;2022-08-19T01:18:35;16.30;;;12.52;;
63276;SDS011;49403;51.046;13.780;2022-08-19T01:19:12;14.65;;;11.52;;
63276;SDS011;49403;51.046;13.780;2022-08-19T01:19:52;16.85;;;11.27;;
63276;SDS011;49403;51.046;13.780;2022-08-19T01:20:24;14.18;;;11.63;;
63276;SDS011;49403;51.046;13.780;2022-08-19T01:20:55;17.75;;;12.38;;
63276;SDS011;49403;51.046;13.780;2022-08-19T01:21:40;17.27;;;12.07;;
63276;SDS011;49403;51.046;13.780;2022-08-19T01:22:16;17.85;;;12.18;;
63276;SDS011;49403;51.046;13.780;2022-08-19T01:22:55;16.52;;;12.30;;
63276;SDS011;49403;51.046;13.780;2022-08-19T01:23:28;15.25;;;11.90;;
63276;SDS011;49403;51.046;13.780;2022-08-19T01:24:12;19.13;;;12.85;;
63276;SDS011;49403;51.046;13.780;2022-08-19T01:24:43;15.65;;;11.48;;
63276;SDS011;49403;51.046;13.780;2022-08-19T01:25:15;16.25;;;12.27;;
63276;SDS011;49403;51.046;13.780;2022-08-19T01:25:49;15.73;;;12.02;;
63276;SDS011;49403;51.046;13.780;2022-08-19T01:26:23;15.88;;;11.88;;
63276;SDS011;49403;51.046;13.780;2022-08-19T01:26:54;20.63;;;12.10;;
63276;SDS011;49403;51.046;13.780;2022-08-19T01:27:25;17.63;;;12.65;;
63276;SDS011;49403;51.046;13.780;2022-08-19T01:27:56;16.25;;;12.27;;
63276;SDS011;49403;51.046;13.780;2022-08-19T01:28:27;17.17;;;12.23;;
63276;SDS011;49403;51.046;13.780;2022-08-19T01:28:58;14.90;;;12.07;;
63276;SDS011;49403;51.046;13.780;2022-08-19T01:29:31;16.90;;;13.10;;
63276;SDS011;49403;51.046;13.780;2022-08-19T01:30:02;15.63;;;12.70;;
63276;SDS011;49403;51.046;13.780;2022-08-19T01:30:35;17.70;;;12.77;;
63276;SDS011;49403;51.046;13.780;2022-08-19T01:31:07;16.63;;;12.57;;
63276;SDS011;49403;51.046;13.780;2022-08-19T01:31:41;16.50;;;11.68;;
63276;SDS011;49403;51.046;13.780;2022-08-19T01:32:13;18.65;;;12.30;;
63276;SDS011;49403;51.046;13.780;2022-08-19T01:32:46;17.63;;;12.07;;
63276;SDS011;49403;51.046;13.780;2022-08-19T01:33:17;16.38;;;12.60;;
63276;SDS011;49403;51.046;13.780;2022-08-19T01:33:49;16.58;;;12.32;;
63276;SDS011;49403;51.046;13.780;2022-08-19T01:34:21;18.98;;;12.27;;
63276;SDS011;49403;51.046;13.780;2022-08-19T01:34:52;14.70;;;12.63;;
63276;SDS011;49403;51.046;13.780;2022-08-19T01:35:24;18.63;;;13.05;;
63276;SDS011;49403;51.046;13.780;2022-08-19T01:36:08;20.92;;;12.23;;
63276;SDS011;49403;51.046;13.780;2022-08-19T01:36:44;17.50;;;12.43;;
63276;SDS011;49403;51.046;13.780;2022-08-19T01:37:17;16.52;;;12.20;;
63276;SDS011;49403;51.046;13.780;2022-08-19T01:37:52;17.70;;;12.52;;
63276;SDS011;49403;51.046;13.780;2022-08-19T01:38:28;19.00;;;13.32;;
63276;SDS011;49403;51.046;13.780;2022-08-19T01:39:00;13.95;;;11.93;;
63276;SDS011;49403;51.046;13.780;2022-08-19T01:39:34;16.88;;;12.35;;
63276;SDS011;49403;51.046;13.780;2022-08-19T01:40:05;17.38;;;12.50;;
63276;SDS011;49403;51.046;13.780;2022-08-19T01:40:39;17.05;;;12.68;;
63276;SDS011;49403;51.046;13.780;2022-08-19T01:41:11;15.75;;;12.23;;
63276;SDS011;49403;51.046;13.780;2022-08-19T01:41:42;15.98;;;11.98;;
63276;SDS011;49403;51.046;13.780;2022-08-19T01:42:13;17.65;;;12.88;;
63276;SDS011;49403;51.046;13.780;2022-08-19T01:42:44;18.23;;;12.63;;
63276;SDS011;49403;51.046;13.780;2022-08-19T01:43:15;17.73;;;12.48;;
63276;SDS011;49403;51.046;13.780;2022-08-19T01:43:46;16.85;;;12.75;;
63276;SDS011;49403;51.046;13.780;2022-08-19T01:44:17;18.08;;;12.95;;
63276;SDS011;49403;51.046;13.780;2022-08-19T01:44:50;17.27;;;12.30;;
63276;SDS011;49403;51.046;13.780;2022-08-19T01:45:22;18.58;;;12.73;;
63276;SDS011;49403;51.046;13.780;2022-08-19T01:45:54;14.45;;;12.00;;
63276;SDS011;49403;51.046;13.780;2022-08-19T01:46:25;16.23;;;12.32;;
63276;SDS011;49403;51.046;13.780;2022-08-19T01:46:56;16.98;;;12.27;;
63276;SDS011;49403;51.046;13.780;2022-08-19T01:47:27;16.30;;;12.07;;
63276;SDS011;49403;51.046;13.780;2022-08-19T01:47:58;17.10;;;12.63;;
63276;SDS011;49403;51.046;13.780;2022-08-19T01:48:39;18.10;;;12.98;;
63276;SDS011;49403;51.046;13.780;2022-08-19T01:49:11;15.65;;;12.23;;
63276;SDS011;49403;51.046;13.780;2022-08-19T01:49:42;16.90;;;12.15;;
63276;SDS011;49403;51.046;13.780;2022-08-19T01:50:13;17.60;;;12.48;;
63276;SDS011;49403;51.046;13.780;2022-08-19T01:50:44;15.93;;;12.75;;
63276;SDS011;49403;51.046;13.780;2022-08-19T01:51:15;15.95;;;12.77;;
63276;SDS011;49403;51.046;13.780;2022-08-19T01:51:46;16.88;;;13.45;;
63276;SDS011;49403;51.046;13.780;2022-08-19T01:52:17;16.77;;;12.38;;
63276;SDS011;49403;51.046;13.780;2022-08-19T01:52:49;14.50;;;11.98;;
63276;SDS011;49403;51.046;13.780;2022-08-19T01:53:20;16.92;;;12.20;;
63276;SDS011;49403;51.046;13.780;2022-08-19T01:53:51;17.52;;;12.68;;
63276;SDS011;49403;51.046;13.780;2022-08-19T01:54:22;15.65;;;12.23;;
63276;SDS011;49403;51.046;13.780;2022-08-19T01:54:54;16.23;;;12.13;;
63276;SDS011;49403;51.046;13.780;2022-08-19T01:55:25;17.80;;;12.25;;
63276;SDS011;49403;51.046;13.780;2022-08-19T01:55:56;18.10;;;12.70;;
63276;SDS011;49403;51.046;13.780;2022-08-19T01:56:27;15.75;;;12.45;;
63276;SDS011;49403;51.046;13.780;2022-08-19T01:57:02;14.73;;;12.57;;
63276;SDS011;49403;51.046;13.780;2022-08-19T01:57:36;18.00;;;12.82;;
63276;SDS011;49403;51.046;13.780;2022-08-19T01:58:14;15.57;;;12.02;;
63276;SDS011;49403;51.046;13.780;2022-08-19T01:58:54;16.27;;;12.37;;
63276;SDS011;49403;51.046;13.780;2022-08-19T01:59:29;14.85;;;12.05;;
63276;SDS011;49403;51.046;13.780;2022-08-19T02:00:03;18.20;;;12.73;;
63276;SDS011;49403;51.046;13.780;2022-08-19T02:00:36;15.73;;;12.05;;
63276;SDS011;49403;51.046;13.780;2022-08-19T02:01:07;17.17;;;13.43;;
63276;SDS011;49403;51.046;13.780;2022-08-19T02:01:38;18.02;;;12.90;;
63276;SDS011;49403;51.046;13.780;2022-08-19T02:02:10;17.63;;;12.40;;
63276;SDS011;49403;51.046;13.780;2022-08-19T02:02:41;17.50;;;12.93;;
63276;SDS011;49403;51.046;13.780;2022-08-19T02:03:13;16.98;;;12.82;;
63276;SDS011;49403;51.046;13.780;2022-08-19T02:03:43;16.85;;;12.65;;
63276;SDS011;49403;51.046;13.780;2022-08-19T02:04:15;19.42;;;13.45;;
63276;SDS011;49403;51.046;13.780;2022-08-19T02:04:46;16.48;;;13.30;;
63276;SDS011;49403;51.046;13.780;2022-08-19T02:05:17;15.55;;;12.35;;
63276;SDS011;49403;51.046;13.780;2022-08-19T02:06:00;17.30;;;12.70;;
63276;SDS011;49403;51.046;13.780;2022-08-19T02:06:33;17.30;;;13.00;;
63276;SDS011;49403;51.046;13.780;2022-08-19T02:07:04;15.82;;;12.40;;
63276;SDS011;49403;51.046;13.780;2022-08-19T02:07:35;16.50;;;12.32;;
63276;SDS011;49403;51.046;13.780;2022-08-19T02:08:07;16.95;;;12.48;;
63276;SDS011;49403;51.046;13.780;2022-08-19T02:08:38;16.92;;;12.57;;
63276;SDS011;49403;51.046;13.780;2022-08-19T02:09:09;17.38;;;13.07;;
63276;SDS011;49403;51.046;13.780;2022-08-19T02:09:40;16.00;;;12.77;;
63276;SDS011;49403;51.046;13.780;2022-08-19T02:10:13;15.55;;;12.65;;
63276;SDS011;49403;51.046;13.780;2022-08-19T02:10:47;18.45;;;12.50;;
63276;SDS011;49403;51.046;13.780;2022-08-19T02:11:22;16.85;;;12.75;;
63276;SDS011;49403;51.046;13.780;2022-08-19T02:11:56;16.60;;;12.73;;
63276;SDS011;49403;51.046;13.780;2022-08-19T02:12:27;17.50;;;12.63;;
63276;SDS011;49403;51.046;13.780;2022-08-19T02:12:58;16.58;;;12.48;;
63276;SDS011;49403;51.046;13.780;2022-08-19T02:13:30;18.10;;;12.93;;
63276;SDS011;49403;51.046;13.780;2022-08-19T02:14:02;14.82;;;13.20;;
63276;SDS011;49403;51.046;13.780;2022-08-19T02:14:35;18.17;;;12.85;;
63276;SDS011;49403;51.046;13.780;2022-08-19T02:15:07;17.77;;;13.18;;
63276;SDS011;49403;51.046;13.780;2022-08-19T02:15:38;16.15;;;12.43;;
63276;SDS011;49403;51.046;13.780;2022-08-19T02:16:09;16.35;;;12.35;;
63276;SDS011;49403;51.046;13.780;2022-08-19T02:16:40;17.15;;;12.73;;
63276;SDS011;49403;51.046;13.780;2022-08-19T02:17:11;17.83;;;12.77;;
63276;SDS011;49403;51.046;13.780;2022-08-19T02:17:42;15.30;;;12.32;;
63276;SDS011;49403;51.046;13.780;2022-08-19T02:18:13;18.15;;;12.63;;
63276;SDS011;49403;51.046;13.780;2022-08-19T02:18:44;14.80;;;12.73;;
63276;SDS011;49403;51.046;13.780;2022-08-19T02:19:15;16.08;;;12.93;;
63276;SDS011;49403;51.046;13.780;2022-08-19T02:19:46;19.10;;;12.77;;
63276;SDS011;49403;51.046;13.780;2022-08-19T02:20:18;16.23;;;12.27;;
63276;SDS011;49403;51.046;13.780;2022-08-19T02:20:49;17.60;;;12.95;;
63276;SDS011;49403;51.046;13.780;2022-08-19T02:21:22;15.77;;;12.73;;
63276;SDS011;49403;51.046;13.780;2022-08-19T02:21:53;17.20;;;12.80;;
63276;SDS011;49403;51.046;13.780;2022-08-19T02:22:24;14.80;;;12.38;;
63276;SDS011;49403;51.046;13.780;2022-08-19T02:22:58;15.90;;;13.07;;
63276;SDS011;49403;51.046;13.780;2022-08-19T02:23:29;17.58;;;12.90;;
63276;SDS011;49403;51.046;13.780;2022-08-19T02:24:01;15.93;;;12.45;;
63276;SDS011;49403;51.046;13.780;2022-08-19T02:24:32;16.42;;;12.25;;
63276;SDS011;49403;51.046;13.780;2022-08-19T02:25:04;17.38;;;12.88;;
63276;SDS011;49403;51.046;13.780;2022-08-19T02:25:35;15.85;;;12.75;;
63276;SDS011;49403;51.046;13.780;2022-08-19T02:26:07;17.42;;;12.68;;
63276;SDS011;49403;51.046;13.780;2022-08-19T02:26:38;15.65;;;12.50;;
63276;SDS011;49403;51.046;13.780;2022-08-19T02:27:09;17.13;;;12.75;;
63276;SDS011;49403;51.046;13.780;2022-08-19T02:27:40;16.63;;;13.35;;
63276;SDS011;49403;51.046;13.780;2022-08-19T02:28:12;20.02;;;13.52;;
63276;SDS011;49403;51.046;13.780;2022-08-19T02:28:43;21.75;;;13.30;;
63276;SDS011;49403;51.046;13.780;2022-08-19T02:29:15;17.48;;;13.15;;
63276;SDS011;49403;51.046;13.780;2022-08-19T02:29:46;16.88;;;13.30;;
63276;SDS011;49403;51.046;13.780;2022-08-19T02:30:19;17.05;;;12.85;;
63276;SDS011;49403;51.046;13.780;2022-08-19T02:30:50;17.80;;;13.50;;
63276;SDS011;49403;51.046;13.780;2022-08-19T02:31:21;18.10;;;12.85;;
63276;SDS011;49403;51.046;13.780;2022-08-19T02:31:54;13.32;;;11.93;;
63276;SDS011;49403;51.046;13.780;2022-08-19T02:32:25;15.57;;;12.65;;
63276;SDS011;49403;51.046;13.780;2022-08-19T02:32:56;14.68;;;12.05;;
63276;SDS011;49403;51.046;13.780;2022-08-19T02:33:28;15.60;;;12.55;;
63276;SDS011;49403;51.046;13.780;2022-08-19T02:33:59;16.95;;;13.20;;
63276;SDS011;49403;51.046;13.780;2022-08-19T02:34:30;18.20;;;13.02;;
63276;SDS011;49403;51.046;13.780;2022-08-19T02:35:01;16.75;;;12.82;;
63276;SDS011;49403;51.046;13.780;2022-08-19T02:35:33;18.60;;;13.48;;
63276;SDS011;49403;51.046;13.780;2022-08-19T02:36:04;17.67;;;13.35;;
63276;SDS011;49403;51.046;13.780;2022-08-19T02:36:36;17.23;;;12.85;;
63276;SDS011;49403;51.046;13.780;2022-08-19T02:37:07;18.50;;;13.43;;
63276;SDS011;49403;51.046;13.780;2022-08-19T02:38:01;18.08;;;12.70;;
63276;SDS011;49403;51.046;13.780;2022-08-19T02:38:50;17.65;;;12.73;;
63276;SDS011;49403;51.046;13.780;2022-08-19T02:39:21;17.38;;;12.45;;
63276;SDS011;49403;51.046;13.780;2022-08-19T02:39:52;17.67;;;12.57;;
63276;SDS011;49403;51.046;13.780;2022-08-19T02:40:23;14.27;;;12.35;;
63276;SDS011;49403;51.046;13.780;2022-08-19T02:40:56;17.55;;;13.10;;
63276;SDS011;49403;51.046;13.780;2022-08-19T02:41:31;15.20;;;12.68;;
63276;SDS011;49403;51.046;13.780;2022-08-19T02:42:03;16.17;;;12.07;;
63276;SDS011;49403;51.046;13.780;2022-08-19T02:42:34;17.05;;;12.30;;
63276;SDS011;49403;51.046;13.780;2022-08-19T02:43:05;17.75;;;12.63;;
63276;SDS011;49403;51.046;13.780;2022-08-19T02:43:38;19.38;;;12.40;;
63276;SDS011;49403;51.046;13.780;2022-08-19T02:44:10;18.13;;;13.25;;
63276;SDS011;49403;51.046;13.780;2022-08-19T02:44:41;16.08;;;12.95;;
63276;SDS011;49403;51.046;13.780;2022-08-19T02:45:12;17.67;;;13.20;;
63276;SDS011;49403;51.046;13.780;2022-08-19T02:45:43;18.10;;;12.88;;
63276;SDS011;49403;51.046;13.780;2022-08-19T02:46:16;16.98;;;12.30;;
63276;SDS011;49403;51.046;13.780;2022-08-19T02:46:51;17.77;;;12.73;;
63276;SDS011;49403;51.046;13.780;2022-08-19T02:47:22;17.40;;;13.05;;
63276;SDS011;49403;51.046;13.780;2022-08-19T02:47:53;19.40;;;12.80;;
63276;SDS011;49403;51.046;13.780;2022-08-19T02:48:25;19.08;;;13.15;;
63276;SDS011;49403;51.046;13.780;2022-08-19T02:48:56;16.67;;;12.60;;
63276;SDS011;49403;51.046;13.780;2022-08-19T02:49:30;17.17;;;12.85;;
63276;SDS011;49403;51.046;13.780;2022-08-19T02:50:02;18.60;;;13.00;;
63276;SDS011;49403;51.046;13.780;2022-08-19T02:50:37;16.80;;;12.80;;
63276;SDS011;49403;51.046;13.780;2022-08-19T02:51:09;16.92;;;12.82;;
63276;SDS011;49403;51.046;13.780;2022-08-19T02:51:53;16.40;;;12.38;;
63276;SDS011;49403;51.046;13.780;2022-08-19T02:52:24;16.65;;;12.52;;
63276;SDS011;49403;51.046;13.780;2022-08-19T02:52:55;17.48;;;12.95;;
63276;SDS011;49403;51.046;13.780;2022-08-19T02:53:27;19.90;;;13.43;;
63276;SDS011;49403;51.046;13.780;2022-08-19T02:53:58;16.90;;;13.50;;
63276;SDS011;49403;51.046;13.780;2022-08-19T02:54:29;19.85;;;12.88;;
63276;SDS011;49403;51.046;13.780;2022-08-19T02:55:01;17.25;;;13.13;;
63276;SDS011;49403;51.046;13.780;2022-08-19T02:55:32;16.02;;;12.50;;
63276;SDS011;49403;51.046;13.780;2022-08-19T02:56:07;15.43;;;12.88;;
63276;SDS011;49403;51.046;13.780;2022-08-19T02:56:39;15.80;;;12.75;;
63276;SDS011;49403;51.046;13.780;2022-08-19T02:57:11;18.50;;;12.52;;
63276;SDS011;49403;51.046;13.780;2022-08-19T02:57:42;17.77;;;13.05;;
63276;SDS011;49403;51.046;13.780;2022-08-19T02:58:13;16.80;;;13.32;;
63276;SDS011;49403;51.046;13.780;2022-08-19T02:58:45;19.40;;;13.13;;
63276;SDS011;49403;51.046;13.780;2022-08-19T02:59:16;19.30;;;12.90;;
63276;SDS011;49403;51.046;13.780;2022-08-19T02:59:47;15.10;;;12.60;;
63276;SDS011;49403;51.046;13.780;2022-08-19T03:00:18;22.27;;;13.40;;
63276;SDS011;49403;51.046;13.780;2022-08-19T03:00:51;17.15;;;13.50;;
63276;SDS011;49403;51.046;13.780;2022-08-19T03:01:25;16.35;;;12.88;;
63276;SDS011;49403;51.046;13.780;2022-08-19T03:01:58;16.65;;;13.18;;
63276;SDS011;49403;51.046;13.780;2022-08-19T03:02:29;17.60;;;12.90;;
63276;SDS011;49403;51.046;13.780;2022-08-19T03:03:00;19.30;;;13.27;;
63276;SDS011;49403;51.046;13.780;2022-08-19T03:03:31;18.30;;;13.30;;
63276;SDS011;49403;51.046;13.780;2022-08-19T03:04:04;17.50;;;13.10;;
63276;SDS011;49403;51.046;13.780;2022-08-19T03:04:35;16.45;;;12.63;;
63276;SDS011;49403;51.046;13.780;2022-08-19T03:05:07;17.95;;;12.73;;
63276;SDS011;49403;51.046;13.780;2022-08-19T03:05:40;15.98;;;12.70;;
63276;SDS011;49403;51.046;13.780;2022-08-19T03:06:13;16.33;;;12.82;;
63276;SDS011;49403;51.046;13.780;2022-08-19T03:06:46;17.73;;;12.75;;
63276;SDS011;49403;51.046;13.780;2022-08-19T03:07:17;16.95;;;12.70;;